createdAt,value
2023-04-18T00:01:12.865Z,98346.30
2023-04-18T00:03:41.913Z,98348.30
2023-04-18T00:06:11.411Z,98344.48
2023-04-18T00:08:41.849Z,98346.77
2023-04-18T00:11:11.860Z,98345.07
2023-04-18T00:13:41.569Z,98343.70
2023-04-18T00:16:13.794Z,98345.55
2023-04-18T00:18:42.767Z,98344.70
2023-04-18T00:21:12.459Z,98346.41
2023-04-18T00:23:42.198Z,98343.06
2023-04-18T00:26:11.137Z,98345.39
2023-04-18T00:28:40.152Z,98343.61
2023-04-18T00:31:09.473Z,98341.77
2023-04-18T00:33:39.434Z,98334.52
2023-04-18T00:36:09.644Z,98336.29
2023-04-18T00:38:38.653Z,98334.16
2023-04-18T00:41:07.525Z,98333.97
2023-04-18T00:43:37.627Z,98326.39
2023-04-18T00:46:06.952Z,98327.23
2023-04-18T00:48:36.634Z,98324.08
2023-04-18T00:51:07.908Z,98320.66
2023-04-18T00:53:37.917Z,98319.47
2023-04-18T00:56:08.166Z,98325.13
2023-04-18T00:58:41.074Z,98327.24
2023-04-18T01:01:10.208Z,98325.31
2023-04-18T01:03:41.529Z,98324.15
2023-04-18T01:06:10.675Z,98322.15
2023-04-18T01:08:39.528Z,98320.33
2023-04-18T01:11:08.180Z,98318.58
2023-04-18T01:13:37.707Z,98318.16
2023-04-18T01:16:06.793Z,98316.88
2023-04-18T01:18:36.003Z,98313.67
2023-04-18T01:21:06.564Z,98309.60
2023-04-18T01:23:36.029Z,98311.98
2023-04-18T01:26:04.987Z,98311.89
2023-04-18T01:28:37.941Z,98312.06
2023-04-18T01:31:07.550Z,98309.24
2023-04-18T01:33:37.499Z,98312.27
2023-04-18T01:36:06.986Z,98307.25
2023-04-18T01:38:36.472Z,98312.89
2023-04-18T01:41:05.298Z,98306.95
2023-04-18T01:43:34.051Z,98313.05
2023-04-18T01:46:03.293Z,98304.05
2023-04-18T01:48:33.878Z,98305.38
2023-04-18T01:51:02.654Z,98303.41
2023-04-18T01:53:32.109Z,98299.57
2023-04-18T01:56:00.914Z,98302.95
2023-04-18T01:58:29.776Z,98297.45
2023-04-18T02:00:58.912Z,98292.20
2023-04-18T02:03:28.345Z,98296.70
2023-04-18T02:05:57.568Z,98297.36
2023-04-18T02:08:26.782Z,98295.66
2023-04-18T02:10:55.849Z,98298.08
2023-04-18T02:13:25.195Z,98299.39
2023-04-18T02:15:54.346Z,98296.64
2023-04-18T02:18:25.380Z,98296.48
2023-04-18T02:20:54.337Z,98298.67
2023-04-18T02:23:23.067Z,98298.66
2023-04-18T02:25:52.080Z,98298.23
2023-04-18T02:28:20.960Z,98298.21
2023-04-18T02:30:50.244Z,98293.61
2023-04-18T02:33:18.972Z,98295.85
2023-04-18T02:35:48.170Z,98294.66
2023-04-18T02:38:17.219Z,98294.33
2023-04-18T02:40:46.512Z,98294.33
2023-04-18T02:43:15.165Z,98296.48
2023-04-18T02:45:44.365Z,98290.34
2023-04-18T02:48:13.529Z,98290.17
2023-04-18T02:50:42.786Z,98289.04
2023-04-18T02:53:11.784Z,98288.42
2023-04-18T02:55:40.961Z,98284.95
2023-04-18T02:58:09.853Z,98286.13
2023-04-18T03:00:38.791Z,98284.69
2023-04-18T03:03:07.735Z,98285.23
2023-04-18T03:05:36.519Z,98285.67
2023-04-18T03:08:06.036Z,98288.98
2023-04-18T03:10:35.400Z,98285.59
2023-04-18T03:13:04.246Z,98281.45
2023-04-18T03:15:33.241Z,98285.27
2023-04-18T03:18:02.433Z,98279.44
2023-04-18T03:20:31.386Z,98279.94
2023-04-18T03:23:00.504Z,98273.34
2023-04-18T03:25:30.063Z,98272.68
2023-04-18T03:27:58.847Z,98271.08
2023-04-18T03:30:28.767Z,98271.97
2023-04-18T03:32:59.026Z,98272.87
2023-04-18T03:35:27.783Z,98271.59
2023-04-18T03:37:57.019Z,98275.98
2023-04-18T03:40:26.185Z,98277.27
2023-04-18T03:42:56.273Z,98279.58
2023-04-18T03:45:25.227Z,98278.71
2023-04-18T03:47:55.718Z,98278.06
2023-04-18T03:50:26.191Z,98283.71
2023-04-18T03:52:55.457Z,98281.38
2023-04-18T03:55:26.913Z,98285.12
2023-04-18T03:57:55.881Z,98282.16
2023-04-18T04:00:24.905Z,98284.78
2023-04-18T04:02:53.803Z,98284.83
2023-04-18T04:05:22.970Z,98290.24
2023-04-18T04:07:52.297Z,98291.19
2023-04-18T04:10:21.216Z,98286.52
2023-04-18T04:12:50.118Z,98287.86
2023-04-18T04:15:18.981Z,98286.60
2023-04-18T04:17:47.609Z,98288.13
2023-04-18T04:20:17.341Z,98290.38
2023-04-18T04:22:46.223Z,98288.09
2023-04-18T04:25:15.594Z,98287.64
2023-04-18T04:27:45.060Z,98289.04
2023-04-18T04:30:14.321Z,98293.59
2023-04-18T04:32:44.974Z,98294.92
2023-04-18T04:35:14.948Z,98296.71
2023-04-18T04:37:44.572Z,98299.55
2023-04-18T04:40:13.638Z,98290.02
2023-04-18T04:42:42.906Z,98296.52
2023-04-18T04:45:12.877Z,98292.71
2023-04-18T04:47:41.791Z,98293.11
2023-04-18T04:50:15.095Z,98298.67
2023-04-18T04:52:44.084Z,98301.19
2023-04-18T04:55:13.400Z,98297.43
2023-04-18T04:57:42.120Z,98299.75
2023-04-18T05:00:11.720Z,98302.73
2023-04-18T05:02:40.808Z,98305.52
2023-04-18T05:05:09.765Z,98310.56
2023-04-18T05:07:38.464Z,98312.80
2023-04-18T05:10:07.734Z,98313.65
2023-04-18T05:12:36.829Z,98314.85
2023-04-18T05:15:06.471Z,98313.38
2023-04-18T05:17:35.860Z,98314.13
2023-04-18T05:20:06.044Z,98315.71
2023-04-18T05:22:36.128Z,98315.39
2023-04-18T05:25:05.576Z,98320.98
2023-04-18T05:27:34.798Z,98323.05
2023-04-18T05:30:03.579Z,98323.40
2023-04-18T05:32:32.767Z,98319.89
2023-04-18T05:35:01.679Z,98325.48
2023-04-18T05:37:30.760Z,98326.38
2023-04-18T05:40:01.152Z,98327.86
2023-04-18T05:42:30.590Z,98328.19
2023-04-18T05:45:00.198Z,98327.80
2023-04-18T05:47:30.701Z,98330.58
2023-04-18T05:50:00.070Z,98335.21
2023-04-18T05:52:31.005Z,98339.86
2023-04-18T05:55:01.295Z,98340.66
2023-04-18T05:57:30.390Z,98343.92
2023-04-18T05:59:59.994Z,98353.54
2023-04-18T06:02:29.640Z,98354.36
2023-04-18T06:05:00.803Z,98356.02
2023-04-18T06:07:30.478Z,98355.32
2023-04-18T06:09:59.481Z,98362.92
2023-04-18T06:12:29.331Z,98361.23
2023-04-18T06:14:58.694Z,98363.59
2023-04-18T06:17:27.954Z,98363.30
2023-04-18T06:19:56.647Z,98364.94
2023-04-18T06:22:25.802Z,98365.56
2023-04-18T06:24:56.330Z,98368.19
2023-04-18T06:27:31.579Z,98373.52
2023-04-18T06:30:00.674Z,98369.52
2023-04-18T06:32:29.550Z,98371.72
2023-04-18T06:34:58.780Z,98371.26
2023-04-18T06:37:28.010Z,98370.02
2023-04-18T06:39:56.633Z,98370.20
2023-04-18T06:42:25.860Z,98374.46
2023-04-18T06:44:54.837Z,98372.65
2023-04-18T06:47:24.180Z,98373.06
2023-04-18T06:49:53.692Z,98371.77
2023-04-18T06:52:24.360Z,98375.70
2023-04-18T06:54:54.419Z,98371.83
2023-04-18T06:57:24.293Z,98374.43
2023-04-18T06:59:53.532Z,98374.99
2023-04-18T07:02:23.194Z,98378.79
2023-04-18T07:04:53.108Z,98379.98
2023-04-18T07:07:22.654Z,98379.86
2023-04-18T07:09:53.237Z,98379.31
2023-04-18T07:12:22.467Z,98375.98
2023-04-18T07:14:52.883Z,98379.42
2023-04-18T07:17:22.231Z,98379.45
2023-04-18T07:19:51.195Z,98376.09
2023-04-18T07:22:20.112Z,98376.27
2023-04-18T07:24:49.065Z,98373.73
2023-04-18T07:27:18.225Z,98373.98
2023-04-18T07:29:47.661Z,98375.92
2023-04-18T07:32:16.488Z,98377.38
2023-04-18T07:34:45.808Z,98382.73
2023-04-18T07:37:15.375Z,98385.27
2023-04-18T07:39:44.237Z,98384.81
2023-04-18T07:42:13.683Z,98383.24
2023-04-18T07:44:43.156Z,98383.60
2023-04-18T07:47:12.149Z,98384.08
2023-04-18T07:49:42.479Z,98384.09
2023-04-18T07:52:11.962Z,98387.03
2023-04-18T07:54:40.991Z,98384.25
2023-04-18T07:57:11.240Z,98391.02
2023-04-18T07:59:40.349Z,98394.36
2023-04-18T08:02:10.206Z,98395.64
2023-04-18T08:04:40.767Z,98396.59
2023-04-18T08:07:10.131Z,98396.01
2023-04-18T08:09:39.201Z,98395.21
2023-04-18T08:12:08.410Z,98398.55
2023-04-18T08:14:37.672Z,98398.00
2023-04-18T08:17:06.422Z,98402.54
2023-04-18T08:19:35.576Z,98405.73
2023-04-18T08:22:10.812Z,98405.33
2023-04-18T08:24:41.697Z,98409.09
2023-04-18T08:27:15.725Z,98411.55
2023-04-18T08:29:45.312Z,98416.97
2023-04-18T08:32:14.309Z,98418.49
2023-04-18T08:34:44.093Z,98421.82
2023-04-18T08:37:13.612Z,98420.06
2023-04-18T08:39:42.783Z,98422.45
2023-04-18T08:42:16.203Z,98427.45
2023-04-18T08:44:48.304Z,98428.53
2023-04-18T08:47:17.942Z,98426.42
2023-04-18T08:49:47.602Z,98430.90
2023-04-18T08:52:18.177Z,98430.29
2023-04-18T08:54:47.844Z,98431.49
2023-04-18T08:57:24.173Z,98430.54
2023-04-18T08:59:54.357Z,98428.86
2023-04-18T09:02:39.313Z,98428.30
2023-04-18T09:05:13.362Z,98431.07
2023-04-18T09:07:43.319Z,98432.20
2023-04-18T09:10:14.256Z,98431.84
2023-04-18T09:12:56.134Z,98427.41
2023-04-18T09:15:30.585Z,98424.02
2023-04-18T09:18:03.422Z,98426.42
2023-04-18T09:20:36.179Z,98430.71
2023-04-18T09:23:11.481Z,98431.42
2023-04-18T09:25:46.983Z,98429.05
2023-04-18T09:28:24.535Z,98430.12
2023-04-18T09:30:54.932Z,98435.11
2023-04-18T09:33:34.978Z,98435.46
2023-04-18T09:36:29.752Z,98433.88
2023-04-18T09:38:58.866Z,98433.54
2023-04-18T09:41:28.056Z,98438.83
2023-04-18T09:44:15.853Z,98437.36
2023-04-18T09:46:47.684Z,98435.18
2023-04-18T09:49:18.200Z,98434.27
2023-04-18T09:51:50.493Z,98430.98
2023-04-18T09:54:21.208Z,98433.83
2023-04-18T09:56:54.710Z,98430.95
2023-04-18T09:59:43.838Z,98430.91
2023-04-18T10:02:21.564Z,98430.59
2023-04-18T10:04:52.710Z,98430.54
2023-04-18T10:07:22.208Z,98430.57
2023-04-18T10:09:52.819Z,98432.60
2023-04-18T10:12:22.076Z,98429.44
2023-04-18T10:14:51.782Z,98431.77
2023-04-18T10:17:24.257Z,98429.05
2023-04-18T10:20:10.871Z,98431.82
2023-04-18T10:22:40.388Z,98428.89
2023-04-18T10:25:09.961Z,98429.11
2023-04-18T10:27:59.273Z,98427.53
2023-04-18T10:30:43.043Z,98427.06
2023-04-18T10:33:30.490Z,98434.91
2023-04-18T10:36:09.854Z,98436.23
2023-04-18T10:38:46.338Z,98431.12
2023-04-18T10:41:24.683Z,98431.98
2023-04-18T10:44:18.879Z,98432.41
2023-04-18T10:46:53.522Z,98430.02
2023-04-18T10:49:34.583Z,98435.20
2023-04-18T10:52:06.730Z,98438.18
2023-04-18T10:54:48.558Z,98440.45
2023-04-18T10:57:17.651Z,98435.27
2023-04-18T10:59:51.944Z,98439.12
2023-04-18T11:02:32.897Z,98440.86
2023-04-18T11:05:07.630Z,98445.20
2023-04-18T11:07:48.840Z,98440.95
2023-04-18T11:10:23.481Z,98436.23
2023-04-18T11:12:53.561Z,98440.30
2023-04-18T11:15:25.780Z,98437.56
2023-04-18T11:18:02.719Z,98440.80
2023-04-18T11:20:50.574Z,98441.73
2023-04-18T11:23:23.554Z,98439.95
2023-04-18T11:25:55.063Z,98441.45
2023-04-18T11:28:25.580Z,98437.19
2023-04-18T11:30:59.932Z,98440.08
2023-04-18T11:33:29.991Z,98440.20
2023-04-18T11:35:59.916Z,98437.05
2023-04-18T11:38:34.214Z,98438.98
2023-04-18T11:41:03.779Z,98438.52
2023-04-18T11:43:32.452Z,98443.06
2023-04-18T11:46:02.255Z,98439.23
2023-04-18T11:48:38.473Z,98436.58
2023-04-18T11:51:09.723Z,98437.59
2023-04-18T11:53:40.046Z,98441.07
2023-04-18T11:56:09.216Z,98442.02
2023-04-18T11:58:38.672Z,98442.52
2023-04-18T12:01:27.822Z,98443.72
2023-04-18T12:04:08.428Z,98445.44
2023-04-18T12:06:52.893Z,98444.29
2023-04-18T12:09:25.433Z,98438.84
2023-04-18T12:12:03.327Z,98445.37
2023-04-18T12:14:32.274Z,98448.80
2023-04-18T12:17:04.684Z,98444.20
2023-04-18T12:19:34.557Z,98441.02
2023-04-18T12:22:05.621Z,98443.14
2023-04-18T12:24:34.805Z,98445.70
2023-04-18T12:27:04.225Z,98441.16
2023-04-18T12:29:33.640Z,98439.28
2023-04-18T12:32:02.839Z,98443.65
2023-04-18T12:34:31.857Z,98441.36
2023-04-18T12:37:01.212Z,98435.17
2023-04-18T12:39:31.333Z,98434.73
2023-04-18T12:42:01.456Z,98430.27
2023-04-18T12:44:30.491Z,98428.76
2023-04-18T12:46:59.606Z,98432.39
2023-04-18T12:49:28.325Z,98428.16
2023-04-18T12:51:57.294Z,98429.63
2023-04-18T12:54:26.331Z,98428.03
2023-04-18T12:56:56.171Z,98423.61
2023-04-18T12:59:25.426Z,98417.63
2023-04-18T13:01:54.373Z,98413.17
2023-04-18T13:04:23.446Z,98409.30
2023-04-18T13:06:52.261Z,98401.30
2023-04-18T13:09:21.416Z,98396.67
2023-04-18T13:11:50.411Z,98399.08
2023-04-18T13:14:19.709Z,98394.86
2023-04-18T13:16:49.749Z,98392.15
2023-04-18T13:19:18.968Z,98393.15
2023-04-18T13:21:49.572Z,98398.25
2023-04-18T13:24:18.680Z,98403.14
2023-04-18T13:26:48.235Z,98407.16
2023-04-18T13:29:19.658Z,98407.77
2023-04-18T13:31:49.455Z,98401.78
2023-04-18T13:34:18.554Z,98402.80
2023-04-18T13:36:47.475Z,98400.24
2023-04-18T13:39:17.189Z,98400.95
2023-04-18T13:41:46.433Z,98400.37
2023-04-18T13:44:15.588Z,98400.13
2023-04-18T13:46:45.484Z,98398.41
2023-04-18T13:49:14.829Z,98396.91
2023-04-18T13:51:43.928Z,98396.39
2023-04-18T13:54:15.940Z,98397.65
2023-04-18T13:56:45.112Z,98398.52
2023-04-18T13:59:14.210Z,98401.89
2023-04-18T14:01:43.639Z,98399.45
2023-04-18T14:04:12.944Z,98401.12
2023-04-18T14:06:42.443Z,98407.98
2023-04-18T14:09:11.695Z,98409.17
2023-04-18T14:11:41.271Z,98408.75
2023-04-18T14:14:10.711Z,98412.60
2023-04-18T14:16:39.792Z,98415.23
2023-04-18T14:19:08.674Z,98417.27
2023-04-18T14:21:37.566Z,98417.06
2023-04-18T14:24:07.499Z,98415.67
2023-04-18T14:26:36.604Z,98416.95
2023-04-18T14:29:06.812Z,98419.98
2023-04-18T14:31:37.000Z,98417.60
2023-04-18T14:34:09.370Z,98416.30
2023-04-18T14:36:41.670Z,98419.89
2023-04-18T14:39:11.904Z,98418.25
2023-04-18T14:41:41.763Z,98421.35
2023-04-18T14:44:12.122Z,98419.35
2023-04-18T14:46:43.295Z,98421.85
2023-04-18T14:49:12.754Z,98420.15
2023-04-18T14:51:41.710Z,98422.98
2023-04-18T14:54:10.937Z,98419.20
2023-04-18T14:56:39.898Z,98415.42
2023-04-18T14:59:09.324Z,98422.41
2023-04-18T15:01:38.593Z,98413.67
2023-04-18T15:04:08.166Z,98425.98
2023-04-18T15:06:37.609Z,98428.34
2023-04-18T15:09:07.061Z,98430.33
2023-04-18T15:11:35.929Z,98429.86
2023-04-18T15:14:05.210Z,98426.98
2023-04-18T15:16:35.949Z,98429.71
2023-04-18T15:19:05.022Z,98424.52
2023-04-18T15:21:35.633Z,98430.28
2023-04-18T15:24:05.060Z,98429.06
2023-04-18T15:26:33.875Z,98433.22
2023-04-18T15:29:06.324Z,98434.92
2023-04-18T15:31:37.143Z,98439.58
2023-04-18T15:34:08.646Z,98432.26
2023-04-18T15:36:37.671Z,98435.78
2023-04-18T15:39:09.455Z,98441.23
2023-04-18T15:41:39.380Z,98436.75
2023-04-18T15:44:09.567Z,98439.09
2023-04-18T15:46:39.126Z,98439.97
2023-04-18T15:49:08.163Z,98442.86
2023-04-18T15:51:37.903Z,98444.58
2023-04-18T15:54:07.955Z,98444.56
2023-04-18T15:56:38.111Z,98444.98
2023-04-18T15:59:07.566Z,98447.93
2023-04-18T16:01:36.894Z,98449.07
2023-04-18T16:04:06.015Z,98445.02
2023-04-18T16:06:36.415Z,98444.56
2023-04-18T16:09:07.005Z,98442.79
2023-04-18T16:11:36.422Z,98447.06
2023-04-18T16:14:05.721Z,98443.10
2023-04-18T16:16:35.186Z,98446.23
2023-04-18T16:19:05.867Z,98450.38
2023-04-18T16:21:34.596Z,98452.02
2023-04-18T16:24:04.393Z,98453.41
2023-04-18T16:26:35.464Z,98457.03
2023-04-18T16:29:06.411Z,98462.31
2023-04-18T16:31:37.205Z,98464.95
2023-04-18T16:34:06.957Z,98466.79
2023-04-18T16:36:36.344Z,98473.34
2023-04-18T16:39:06.272Z,98474.77
2023-04-18T16:41:36.293Z,98476.84
2023-04-18T16:44:07.044Z,98482.98
2023-04-18T16:46:36.814Z,98487.52
2023-04-18T16:49:07.222Z,98491.98
2023-04-18T16:51:37.733Z,98491.82
2023-04-18T16:54:09.969Z,98499.85
2023-04-18T16:56:40.333Z,98499.05
2023-04-18T16:59:12.017Z,98503.98
2023-04-18T17:01:42.832Z,98509.46
2023-04-18T17:04:13.528Z,98509.75
2023-04-18T17:06:44.759Z,98511.52
2023-04-18T17:09:16.555Z,98517.88
2023-04-18T17:11:50.319Z,98520.40
2023-04-18T17:14:24.277Z,98521.53
2023-04-18T17:16:54.915Z,98521.73
2023-04-18T17:19:27.180Z,98525.67
2023-04-18T17:21:56.735Z,98529.31
2023-04-18T17:24:29.059Z,98527.66
2023-04-18T17:26:58.765Z,98537.73
2023-04-18T17:29:29.600Z,98538.97
2023-04-18T17:32:00.517Z,98539.65
2023-04-18T17:34:32.380Z,98543.48
2023-04-18T17:37:05.097Z,98542.72
2023-04-18T17:39:37.106Z,98544.05
2023-04-18T17:42:09.223Z,98550.16
2023-04-18T17:44:41.848Z,98551.89
2023-04-18T17:47:13.318Z,98554.84
2023-04-18T17:49:43.474Z,98558.89
2023-04-18T17:52:15.695Z,98558.23
2023-04-18T17:54:46.099Z,98563.05
2023-04-18T17:57:17.864Z,98563.88
2023-04-18T17:59:50.495Z,98567.95
2023-04-18T18:02:24.420Z,98570.05
2023-04-18T18:04:55.594Z,98572.09
2023-04-18T18:07:26.251Z,98575.80
2023-04-18T18:09:57.285Z,98579.39
2023-04-18T18:12:30.124Z,98582.82
2023-04-18T18:15:01.345Z,98589.23
2023-04-18T18:17:31.581Z,98593.34
2023-04-18T18:20:03.509Z,98596.30
2023-04-18T18:22:38.938Z,98598.71
2023-04-18T18:25:12.833Z,98597.66
2023-04-18T18:27:45.292Z,98603.11
2023-04-18T18:30:18.173Z,98606.16
2023-04-18T18:32:50.494Z,98610.50
2023-04-18T18:35:20.228Z,98608.32
2023-04-18T18:37:51.919Z,98612.84
2023-04-18T18:40:24.165Z,98613.89
2023-04-18T18:42:57.983Z,98619.43
2023-04-18T18:45:27.438Z,98621.29
2023-04-18T18:47:56.785Z,98623.80
2023-04-18T18:50:26.057Z,98626.02
2023-04-18T18:52:56.164Z,98629.58
2023-04-18T18:55:26.664Z,98632.73
2023-04-18T18:57:57.381Z,98631.98
2023-04-18T19:00:27.414Z,98632.73
2023-04-18T19:02:57.442Z,98637.42
2023-04-18T19:05:27.619Z,98639.05
2023-04-18T19:07:58.126Z,98641.45
2023-04-18T19:10:27.743Z,98643.65
2023-04-18T19:12:57.425Z,98640.80
2023-04-18T19:15:27.007Z,98639.07
2023-04-18T19:17:57.612Z,98639.73
2023-04-18T19:20:29.150Z,98640.10
2023-04-18T19:22:59.044Z,98640.71
2023-04-18T19:25:29.237Z,98645.10
2023-04-18T19:27:59.120Z,98640.45
2023-04-18T19:30:29.888Z,98643.25
2023-04-18T19:33:01.638Z,98646.64
2023-04-18T19:35:31.653Z,98648.95
2023-04-18T19:38:04.211Z,98648.11
2023-04-18T19:40:37.868Z,98655.11
2023-04-18T19:43:11.485Z,98651.33
2023-04-18T19:45:43.612Z,98653.98
2023-04-18T19:48:15.614Z,98656.89
2023-04-18T19:50:46.202Z,98655.91
2023-04-18T19:53:19.678Z,98656.24
2023-04-18T19:55:50.185Z,98657.84
2023-04-18T19:58:49.978Z,98659.55
2023-04-18T20:01:22.855Z,98659.41
2023-04-18T20:03:56.674Z,98658.88
2023-04-18T20:06:28.928Z,98655.55
2023-04-18T20:09:00.054Z,98656.74
2023-04-18T20:11:30.403Z,98655.42
2023-04-18T20:14:02.833Z,98658.34
2023-04-18T20:16:35.112Z,98666.23
2023-04-18T20:19:06.688Z,98663.75
2023-04-18T20:21:36.958Z,98664.58
2023-04-18T20:24:10.187Z,98665.06
2023-04-18T20:26:39.785Z,98663.14
2023-04-18T20:29:09.814Z,98665.61
2023-04-18T20:31:43.101Z,98669.75
2023-04-18T20:38:31.830Z,98668.95
2023-04-18T20:41:04.380Z,98669.71
2023-04-18T20:43:38.737Z,98671.46
2023-04-18T20:46:13.652Z,98672.13
2023-04-18T20:48:49.910Z,98674.55
2023-04-18T20:51:21.380Z,98672.06
2023-04-18T20:53:51.339Z,98670.95
2023-04-18T20:56:20.790Z,98669.71
2023-04-18T20:58:50.610Z,98672.63
2023-04-18T21:01:21.001Z,98668.77
2023-04-18T21:03:51.065Z,98672.55
2023-04-18T21:06:22.817Z,98673.27
2023-04-18T21:08:53.760Z,98669.89
2023-04-18T21:11:24.124Z,98673.89
2023-04-18T21:13:53.568Z,98676.65
2023-04-18T21:16:24.889Z,98680.52
2023-04-18T21:18:57.709Z,98682.29
2023-04-18T21:21:27.998Z,98685.93
2023-04-18T21:23:58.148Z,98684.39
2023-04-18T21:26:28.024Z,98689.00
2023-04-18T21:28:58.290Z,98686.33
2023-04-18T21:31:30.600Z,98684.24
2023-04-18T21:34:03.644Z,98685.75
2023-04-18T21:36:34.516Z,98685.16
2023-04-18T21:39:04.705Z,98687.48
2023-04-18T21:41:34.625Z,98686.82
2023-04-18T21:44:03.826Z,98692.11
2023-04-18T21:46:33.398Z,98691.00
2023-04-18T21:49:02.400Z,98695.24
2023-04-18T21:51:32.742Z,98693.24
2023-04-18T21:54:02.731Z,98698.68
2023-04-18T21:56:32.124Z,98699.98
2023-04-18T21:59:01.724Z,98699.85
2023-04-18T22:01:31.074Z,98695.44
2023-04-18T22:04:01.701Z,98699.80
2023-04-18T22:06:32.894Z,98701.31
2023-04-18T22:09:02.242Z,98703.92
2023-04-18T22:11:31.352Z,98708.15
2023-04-18T22:14:00.989Z,98705.38
2023-04-18T22:16:31.130Z,98701.02
2023-04-18T22:19:01.868Z,98698.55
2023-04-18T22:21:31.934Z,98698.60
2023-04-18T22:24:01.446Z,98699.27
2023-04-18T22:26:30.962Z,98699.37
2023-04-18T22:29:01.219Z,98705.17
2023-04-18T22:31:30.492Z,98708.46
2023-04-18T22:34:00.032Z,98710.48
2023-04-18T22:36:29.233Z,98709.30
2023-04-18T22:38:59.529Z,98711.41
2023-04-18T22:41:28.992Z,98716.98
2023-04-18T22:43:58.312Z,98718.96
2023-04-18T22:46:27.625Z,98719.21
2023-04-18T22:48:57.769Z,98717.56
2023-04-18T22:51:29.095Z,98717.89
2023-04-18T22:53:59.531Z,98715.20
2023-04-18T22:56:28.958Z,98719.56
2023-04-18T22:58:58.209Z,98718.69
2023-04-18T23:01:29.258Z,98723.21
2023-04-18T23:03:59.305Z,98720.50
2023-04-18T23:06:30.844Z,98725.06
2023-04-18T23:09:00.380Z,98725.04
2023-04-18T23:11:30.293Z,98723.03
2023-04-18T23:13:59.126Z,98722.68
2023-04-18T23:16:28.840Z,98722.79
2023-04-18T23:18:57.781Z,98720.23
2023-04-18T23:21:28.515Z,98716.66
2023-04-18T23:23:57.609Z,98718.67
2023-04-18T23:26:27.110Z,98716.59
2023-04-18T23:28:56.033Z,98714.45
2023-04-18T23:31:25.431Z,98711.67
2023-04-18T23:33:57.012Z,98709.67
2023-04-18T23:36:26.614Z,98709.21
2023-04-18T23:38:55.931Z,98708.05
2023-04-18T23:41:26.064Z,98709.02
2023-04-18T23:43:55.529Z,98710.87
2023-04-18T23:46:26.696Z,98708.02
2023-04-18T23:48:55.865Z,98709.23
2023-04-18T23:51:25.082Z,98709.09
2023-04-18T23:53:54.246Z,98713.64
2023-04-18T23:56:23.592Z,98711.46
2023-04-18T23:58:54.954Z,98713.67
